Berkeley Springs, WV

6:29 AM EDT on October 22, 2014 (GMT -0400)
Coolfont Mountainside | Change Station
CLOSE
Current Station
Personal Weather Station
Location: Berkeley Springs, WV
Elevation: 1053 ft
Nearby Weather Stations

Elev 1053 ft 39.59 °N, 78.27 °W | Updated 32 seconds ago

Overcast
Overcast
49.1 °F
Feels Like 49 °F
N
3.0
Wind Variable Wind from East
Gusts 5.0 mph

Today
High -- | Low -- °F
--% Chance of Precip.
Yesterday
High -- | Low -- °F
Precip. -- in
7:30 AM 6:23 PM
Waning Crescent, 2% visible
Pressure 29.94 in
Visibility 10.0 miles
Clouds Few 2800 ft
Mostly Cloudy 3500 ft
Overcast 5000 ft
Windchill 49 °F
Dew Point 48 °F
Humidity 94%
Rainfall 0.00 in
Snow Depth Not available.
UV 0 out of 12
Pollen .30 out of 12
Air Quality Not available.
Flu Activity Sporadic
SPECI KMRB 221014Z AUTO 33011KT 10SM FEW028 BKN035 OVC050 12/08 A2994 RMK AO2 T01170078 TSNO

More Conditions Fewer Conditions

Pressure 29.94 in
Visibility 10.0 miles
Clouds Few 2800 ft
Mostly Cloudy 3500 ft
Overcast 5000 ft
Windchill 49 °F
Dew Point 48 °F
Humidity 94%
Rainfall 0.00 in
Snow Depth Not available.
UV 0 out of 12
Pollen .30 out of 12
Air Quality Not available.
Flu Activity Sporadic
SPECI KMRB 221014Z AUTO 33011KT 10SM FEW028 BKN035 OVC050 12/08 A2994 RMK AO2 T01170078 TSNO

More Conditions Fewer Conditions

10-Day Weather Forecast

Almanac

Astronomy

Oct. 22, 2014 Rise Set
Actual Time 7:30 AM EDT 6:23 PM EDT
Civil Twilight 7:02 AM EDT 6:51 PM EDT
Nautical Twilight 6:31 AM EDT 7:22 PM EDT
Astronomical Twilight 6:00 AM EDT 7:53 PM EDT
Moon 6:10 AM EDT 5:49 PM EDT
Length of Visible Light 11h 48m
Length of Day
10h 53m
Tomorrow will be 2m 26s shorter.
Waning Crescent, 2% of the Moon is Illuminated
Today
Waning Crescent
Oct 23
New
Oct 30
First Quarter
Nov 6
Full
Nov 14
Last Quarter

Today's Extremes

State Highs State Lows

Community

WunderPhotos

Upload Photos

1,763,902 photos uploaded!

Nearby

Snow Depth

Station Depth Elevation
No new snow has been reported.

Earthquake Activity

City Distance Mag. Time & Date
No recent earthquake activity has been reported nearby.
Minimum magnitude displayed is 2.5.

Coastal Water Temperatures

Place Temperature
No Stations Reporting

Nearby Weather Stations